createdAt,value
2022-12-25T00:01:56.925Z,13.45
2022-12-25T00:04:24.467Z,14.90
2022-12-25T00:06:52.560Z,16.95
2022-12-25T00:09:20.726Z,19.20
2022-12-25T00:11:48.580Z,16.70
2022-12-25T00:14:16.459Z,13.05
2022-12-25T00:16:44.304Z,10.02
2022-12-25T00:19:11.866Z,9.73
2022-12-25T00:21:39.426Z,12.15
2022-12-25T00:24:07.502Z,16.63
2022-12-25T00:26:35.361Z,13.43
2022-12-25T00:29:03.270Z,12.55
2022-12-25T00:31:31.176Z,11.13
2022-12-25T00:33:59.121Z,14.13
2022-12-25T00:36:26.945Z,8.40
2022-12-25T00:38:55.020Z,12.40
2022-12-25T00:41:42.698Z,14.20
2022-12-25T00:44:13.626Z,9.93
2022-12-25T00:46:42.521Z,14.00
2022-12-25T00:49:11.478Z,9.68
2022-12-25T00:51:39.598Z,17.80
2022-12-25T00:54:07.935Z,11.95
2022-12-25T00:56:35.743Z,12.82
2022-12-25T00:59:05.340Z,12.18
2022-12-25T01:01:34.090Z,15.80
2022-12-25T01:04:02.216Z,15.57
2022-12-25T01:06:30.596Z,14.77
2022-12-25T01:09:17.378Z,13.77
2022-12-25T01:11:45.366Z,9.75
2022-12-25T01:14:13.441Z,14.00
2022-12-25T01:16:41.992Z,6.20
2022-12-25T01:19:10.494Z,10.68
2022-12-25T01:21:38.711Z,9.68
2022-12-25T01:24:07.138Z,11.57
2022-12-25T01:26:35.295Z,12.63
2022-12-25T01:29:03.708Z,8.73
2022-12-25T01:31:31.218Z,12.38
2022-12-25T01:33:59.363Z,9.43
2022-12-25T01:36:27.644Z,9.55
2022-12-25T01:38:56.211Z,6.85
2022-12-25T01:41:25.673Z,8.13
2022-12-25T01:43:59.737Z,10.15
2022-12-25T01:46:27.697Z,8.60
2022-12-25T01:48:57.216Z,12.77
2022-12-25T01:51:36.833Z,9.73
2022-12-25T01:54:06.515Z,7.57
2022-12-25T01:56:35.083Z,8.23
2022-12-25T01:59:03.613Z,8.05
2022-12-25T02:01:31.553Z,5.75
2022-12-25T02:04:03.809Z,8.68
2022-12-25T02:06:31.937Z,9.48
2022-12-25T02:08:59.663Z,12.70
2022-12-25T02:11:45.578Z,9.30
2022-12-25T02:14:13.571Z,13.55
2022-12-25T02:16:57.753Z,6.85
2022-12-25T02:19:56.574Z,6.35
2022-12-25T02:22:42.334Z,12.05
2022-12-25T02:25:27.589Z,10.90
2022-12-25T02:28:21.466Z,9.57
2022-12-25T02:31:15.190Z,14.07
2022-12-25T02:34:05.026Z,11.70
2022-12-25T02:36:46.227Z,8.30
2022-12-25T02:39:41.267Z,10.02
2022-12-25T02:42:16.483Z,9.90
2022-12-25T02:45:04.795Z,11.48
2022-12-25T02:47:51.934Z,12.00
2022-12-25T02:50:41.800Z,8.13
2022-12-25T02:53:29.590Z,10.53
2022-12-25T02:56:16.636Z,15.93
2022-12-25T02:59:04.595Z,12.88
2022-12-25T03:01:52.622Z,12.20
2022-12-25T03:04:41.828Z,18.60
2022-12-25T03:07:17.536Z,16.33
2022-12-25T03:10:09.465Z,20.77
2022-12-25T03:15:26.545Z,14.07
2022-12-25T03:17:54.945Z,11.15
2022-12-25T03:20:41.370Z,16.75
2022-12-25T03:23:29.945Z,17.20
2022-12-25T03:26:16.357Z,13.25
2022-12-25T03:28:43.892Z,10.82
2022-12-25T03:31:11.931Z,12.93
2022-12-25T03:34:25.265Z,16.00
2022-12-25T03:37:30.440Z,22.42
2022-12-25T03:40:45.087Z,16.95
2022-12-25T03:43:30.792Z,19.98
2022-12-25T03:46:19.639Z,19.88
2022-12-25T03:49:08.966Z,18.10
2022-12-25T03:51:57.268Z,23.92
2022-12-25T03:54:48.202Z,13.15
2022-12-25T03:57:34.158Z,18.37
2022-12-25T04:00:20.755Z,13.02
2022-12-25T04:03:06.777Z,18.83
2022-12-25T04:05:52.956Z,13.82
2022-12-25T04:08:39.573Z,19.63
2022-12-25T04:11:26.269Z,21.05
2022-12-25T04:14:12.909Z,15.45
2022-12-25T04:16:59.488Z,20.05
2022-12-25T04:19:46.160Z,16.83
2022-12-25T04:22:32.629Z,18.38
2022-12-25T04:25:18.610Z,20.40
2022-12-25T04:28:04.879Z,21.40
2022-12-25T04:30:51.357Z,15.98
2022-12-25T04:33:38.169Z,20.02
2022-12-25T04:36:09.473Z,21.75
2022-12-25T04:38:37.891Z,22.80
2022-12-25T04:41:05.920Z,26.00
2022-12-25T04:43:33.457Z,21.58
2022-12-25T04:46:02.286Z,13.70
2022-12-25T04:48:31.673Z,19.42
2022-12-25T04:50:59.640Z,21.45
2022-12-25T04:53:27.981Z,21.02
2022-12-25T04:56:01.927Z,20.40
2022-12-25T04:58:31.239Z,14.07
2022-12-25T05:01:02.516Z,12.60
2022-12-25T05:03:31.332Z,18.88
2022-12-25T05:05:59.451Z,16.58
2022-12-25T05:08:30.603Z,21.88
2022-12-25T05:10:59.028Z,18.77
2022-12-25T05:13:27.054Z,22.85
2022-12-25T05:15:55.000Z,31.42
2022-12-25T05:18:23.116Z,25.00
2022-12-25T05:20:55.111Z,18.90
2022-12-25T05:23:23.385Z,31.38
2022-12-25T05:25:51.374Z,26.05
2022-12-25T05:28:19.525Z,24.83
2022-12-25T05:30:47.543Z,20.80
2022-12-25T05:33:15.426Z,26.90
2022-12-25T05:35:43.251Z,18.00
2022-12-25T05:38:11.122Z,24.77
2022-12-25T05:40:41.089Z,14.63
2022-12-25T05:43:09.282Z,21.98
2022-12-25T05:45:37.563Z,21.02
2022-12-25T05:48:05.442Z,30.23
2022-12-25T05:50:33.546Z,25.60
2022-12-25T05:53:09.131Z,16.67
2022-12-25T05:55:37.573Z,26.30
2022-12-25T05:58:06.049Z,24.10
2022-12-25T06:00:34.767Z,17.75
2022-12-25T06:03:02.476Z,22.23
2022-12-25T06:05:30.715Z,15.75
2022-12-25T06:07:58.594Z,24.77
2022-12-25T06:10:26.454Z,28.58
2022-12-25T06:12:55.259Z,24.15
2022-12-25T06:15:23.209Z,20.70
2022-12-25T06:17:51.110Z,27.23
2022-12-25T06:20:18.980Z,23.48
2022-12-25T06:22:46.937Z,19.55
2022-12-25T06:25:15.041Z,25.75
2022-12-25T06:27:42.902Z,29.58
2022-12-25T06:30:11.029Z,18.77
2022-12-25T06:32:38.887Z,25.52
2022-12-25T06:35:07.092Z,28.33
2022-12-25T06:37:35.167Z,23.73
2022-12-25T06:40:03.056Z,24.90
2022-12-25T06:42:30.887Z,27.45
2022-12-25T06:44:58.935Z,27.10
2022-12-25T06:47:26.979Z,23.20
2022-12-25T06:49:54.831Z,40.95
2022-12-25T06:52:22.674Z,18.95
2022-12-25T06:54:50.162Z,21.70
2022-12-25T06:57:18.933Z,20.38
2022-12-25T06:59:52.943Z,22.55
2022-12-25T07:02:23.828Z,28.60
2022-12-25T07:04:52.028Z,22.27
2022-12-25T07:07:20.773Z,19.63
2022-12-25T07:09:48.283Z,20.52
2022-12-25T07:12:20.905Z,23.27
2022-12-25T07:14:51.318Z,24.60
2022-12-25T07:17:20.712Z,30.83
2022-12-25T07:19:48.665Z,19.90
2022-12-25T07:22:17.288Z,26.63
2022-12-25T07:24:45.099Z,24.60
2022-12-25T07:27:13.026Z,29.75
2022-12-25T07:29:40.848Z,26.58
2022-12-25T07:32:08.767Z,28.33
2022-12-25T07:34:36.264Z,21.67
2022-12-25T07:37:03.938Z,20.85
2022-12-25T07:39:32.114Z,22.73
2022-12-25T07:42:00.136Z,25.73
2022-12-25T07:44:29.140Z,29.92
2022-12-25T07:46:57.165Z,26.92
2022-12-25T07:49:25.043Z,33.53
2022-12-25T07:51:52.882Z,30.02
2022-12-25T07:54:20.887Z,24.95
2022-12-25T07:56:52.552Z,19.50
2022-12-25T08:01:50.061Z,27.60
2022-12-25T08:04:17.886Z,25.08
2022-12-25T08:06:45.452Z,24.17
2022-12-25T08:09:13.559Z,22.23
2022-12-25T08:11:45.848Z,23.48
2022-12-25T08:14:14.029Z,27.08
2022-12-25T08:16:42.428Z,30.35
2022-12-25T08:19:10.464Z,27.00
2022-12-25T08:21:39.013Z,23.95
2022-12-25T08:24:07.212Z,33.65
2022-12-25T08:26:35.223Z,20.40
2022-12-25T08:29:03.587Z,23.80
2022-12-25T08:31:34.198Z,23.70
2022-12-25T08:34:03.534Z,22.77
2022-12-25T08:36:31.580Z,27.05
2022-12-25T08:39:03.045Z,24.52
2022-12-25T08:41:32.553Z,28.23
2022-12-25T08:44:00.564Z,26.08
2022-12-25T08:46:28.546Z,26.73
2022-12-25T08:48:56.976Z,22.67
2022-12-25T08:51:26.097Z,30.55
2022-12-25T08:53:58.398Z,25.20
2022-12-25T08:56:26.264Z,22.08
2022-12-25T08:58:54.105Z,28.98
2022-12-25T09:01:22.016Z,24.63
2022-12-25T09:03:49.797Z,28.05
2022-12-25T09:06:18.121Z,27.50
2022-12-25T09:08:49.038Z,23.15
2022-12-25T09:13:45.297Z,23.70
2022-12-25T09:16:14.487Z,22.35
2022-12-25T09:18:41.991Z,25.75
2022-12-25T09:21:11.657Z,25.17
2022-12-25T09:23:40.042Z,20.30
2022-12-25T09:26:08.717Z,24.27
2022-12-25T09:28:36.308Z,30.63
2022-12-25T09:31:05.015Z,28.88
2022-12-25T09:33:32.926Z,25.80
2022-12-25T09:36:02.663Z,32.22
2022-12-25T09:38:30.993Z,22.08
2022-12-25T09:41:09.166Z,23.15
2022-12-25T09:43:49.383Z,25.23
2022-12-25T09:46:19.867Z,18.95
2022-12-25T09:49:03.561Z,30.55
2022-12-25T09:51:33.893Z,25.40
2022-12-25T09:54:05.193Z,29.42
2022-12-25T09:56:33.159Z,23.77
2022-12-25T09:59:01.412Z,26.23
2022-12-25T10:01:32.825Z,25.10
2022-12-25T10:04:13.132Z,35.42
2022-12-25T10:06:59.966Z,31.48
2022-12-25T10:09:27.872Z,31.00
2022-12-25T10:12:14.539Z,28.25
2022-12-25T10:14:48.775Z,30.23
2022-12-25T10:17:28.477Z,26.92
2022-12-25T10:19:56.539Z,22.00
2022-12-25T10:22:43.310Z,21.65
2022-12-25T10:25:16.369Z,26.83
2022-12-25T10:27:44.548Z,21.98
2022-12-25T10:30:20.039Z,19.98
2022-12-25T10:32:48.709Z,28.73
2022-12-25T10:35:19.159Z,28.38
2022-12-25T10:37:53.291Z,29.85
2022-12-25T10:40:28.910Z,23.67
2022-12-25T10:43:00.166Z,23.40
2022-12-25T10:45:28.329Z,23.42
2022-12-25T10:48:07.527Z,20.60
2022-12-25T10:50:43.330Z,20.77
2022-12-25T10:53:28.581Z,30.05
2022-12-25T10:56:03.421Z,24.73
2022-12-25T10:58:32.049Z,24.48
2022-12-25T11:01:02.933Z,37.55
2022-12-25T11:03:32.414Z,21.92
2022-12-25T11:06:01.184Z,36.60
2022-12-25T11:08:30.286Z,31.75
2022-12-25T11:10:59.631Z,24.70
2022-12-25T11:13:29.138Z,20.50
2022-12-25T11:16:06.235Z,28.98
2022-12-25T11:18:35.663Z,30.88
2022-12-25T11:21:16.820Z,20.95
2022-12-25T11:23:49.331Z,25.27
2022-12-25T11:26:18.461Z,27.73
2022-12-25T11:28:48.839Z,26.33
2022-12-25T11:31:21.481Z,21.38
2022-12-25T11:34:06.517Z,25.00
2022-12-25T11:36:37.403Z,26.60
2022-12-25T11:39:19.163Z,24.40
2022-12-25T11:44:30.085Z,23.52
2022-12-25T11:46:59.416Z,17.58
2022-12-25T11:49:27.268Z,21.98
2022-12-25T11:51:57.184Z,21.25
2022-12-25T11:54:25.318Z,23.65
2022-12-25T11:56:53.475Z,21.38
2022-12-25T11:59:36.151Z,25.45
2022-12-25T12:02:22.936Z,21.58
2022-12-25T12:04:56.080Z,29.38
2022-12-25T12:07:23.934Z,25.67
2022-12-25T12:10:19.494Z,19.85
2022-12-25T12:13:08.730Z,17.83
2022-12-25T12:15:41.831Z,19.38
2022-12-25T12:18:10.041Z,15.48
2022-12-25T12:20:37.795Z,26.52
2022-12-25T12:23:13.173Z,24.48
2022-12-25T12:25:42.475Z,14.13
2022-12-25T12:28:14.068Z,19.02
2022-12-25T12:30:41.961Z,22.40
2022-12-25T12:33:19.607Z,15.60
2022-12-25T12:35:48.443Z,18.75
2022-12-25T12:38:18.845Z,18.95
2022-12-25T12:41:14.754Z,24.90
2022-12-25T12:44:04.464Z,22.25
2022-12-25T12:46:36.519Z,26.23
2022-12-25T12:49:16.543Z,19.55
2022-12-25T12:51:44.170Z,18.83
2022-12-25T12:54:24.529Z,20.27
2022-12-25T12:56:59.732Z,21.10
2022-12-25T12:59:34.864Z,24.10
2022-12-25T13:02:22.465Z,16.52
2022-12-25T13:05:22.950Z,21.48
2022-12-25T13:08:10.147Z,13.00
2022-12-25T13:10:41.391Z,14.15
2022-12-25T13:13:23.203Z,18.20
2022-12-25T13:18:20.474Z,16.83
2022-12-25T13:20:55.655Z,13.98
2022-12-25T13:23:30.475Z,15.45
2022-12-25T13:26:03.364Z,18.58
2022-12-25T13:28:33.499Z,12.82
2022-12-25T13:31:11.341Z,13.13
2022-12-25T13:33:45.084Z,10.68
2022-12-25T13:36:14.187Z,13.48
2022-12-25T13:38:47.238Z,12.50
2022-12-25T13:41:49.000Z,9.82
2022-12-25T13:44:26.215Z,16.48
2022-12-25T13:46:54.244Z,10.88
2022-12-25T13:49:23.350Z,17.17
2022-12-25T13:51:51.540Z,15.00
2022-12-25T13:54:19.975Z,13.13
2022-12-25T13:56:47.865Z,10.73
2022-12-25T13:59:18.822Z,10.50
2022-12-25T14:01:47.395Z,12.93
2022-12-25T14:04:16.871Z,14.88
2022-12-25T14:06:45.137Z,12.35
2022-12-25T14:09:14.039Z,12.77
2022-12-25T14:11:48.041Z,9.25
2022-12-25T14:14:20.410Z,11.68
2022-12-25T14:16:49.482Z,8.88
2022-12-25T14:19:27.476Z,9.98
2022-12-25T14:21:58.737Z,12.48
2022-12-25T14:24:27.928Z,8.10
2022-12-25T14:27:06.697Z,10.93
2022-12-25T14:29:40.452Z,11.45
2022-12-25T14:32:10.824Z,8.50
2022-12-25T14:34:38.732Z,14.32
2022-12-25T14:37:08.349Z,7.72
2022-12-25T14:39:37.724Z,12.07
2022-12-25T14:42:23.701Z,13.50
2022-12-25T14:45:06.581Z,9.52
2022-12-25T14:47:50.191Z,6.63
2022-12-25T14:50:28.991Z,8.88
2022-12-25T14:52:57.407Z,7.97
2022-12-25T14:55:27.279Z,10.48
2022-12-25T14:57:58.667Z,6.82
2022-12-25T15:00:31.734Z,6.97
2022-12-25T15:03:00.455Z,8.88
2022-12-25T15:05:31.690Z,8.65
2022-12-25T15:08:07.432Z,10.85
2022-12-25T15:13:24.096Z,8.73
2022-12-25T15:15:53.933Z,11.85
2022-12-25T15:18:23.388Z,6.40
2022-12-25T15:20:54.947Z,8.68
2022-12-25T15:25:51.143Z,10.63
2022-12-25T15:28:19.049Z,10.73
2022-12-25T15:30:46.985Z,8.82
2022-12-25T15:33:15.912Z,8.63
2022-12-25T15:35:44.450Z,8.88
2022-12-25T15:38:13.301Z,12.07
2022-12-25T15:40:41.603Z,10.10
2022-12-25T15:43:38.928Z,17.02
2022-12-25T15:46:01.784Z,10.35
2022-12-25T15:48:29.466Z,13.00
2022-12-25T15:50:57.485Z,12.40
2022-12-25T15:53:26.973Z,10.85
2022-12-25T15:55:54.924Z,15.18
2022-12-25T15:58:22.771Z,9.13
2022-12-25T16:00:51.249Z,13.43
2022-12-25T16:03:19.118Z,10.40
2022-12-25T16:05:47.061Z,12.05
2022-12-25T16:08:14.908Z,9.52
2022-12-25T16:10:42.889Z,10.55
2022-12-25T16:13:10.722Z,20.50
2022-12-25T16:15:38.253Z,15.48
2022-12-25T16:18:06.524Z,13.57
2022-12-25T16:20:35.153Z,15.85
2022-12-25T16:23:02.973Z,13.57
2022-12-25T16:25:30.886Z,13.35
2022-12-25T16:27:58.887Z,14.93
2022-12-25T16:30:26.827Z,12.10
2022-12-25T16:32:54.755Z,13.45
2022-12-25T16:35:22.803Z,13.48
2022-12-25T16:37:50.632Z,15.40
2022-12-25T16:40:18.361Z,12.57
2022-12-25T16:42:46.353Z,14.82
2022-12-25T16:45:15.154Z,9.63
2022-12-25T16:47:43.013Z,9.02
2022-12-25T16:50:11.019Z,15.05
2022-12-25T16:52:39.032Z,12.57
2022-12-25T16:55:07.090Z,13.50
2022-12-25T16:57:34.960Z,14.68
2022-12-25T17:00:02.791Z,11.73
2022-12-25T17:02:31.484Z,15.63
2022-12-25T17:05:00.462Z,14.73
2022-12-25T17:07:28.410Z,8.38
2022-12-25T17:09:57.244Z,11.50
2022-12-25T17:12:25.058Z,15.25
2022-12-25T17:14:53.070Z,11.13
2022-12-25T17:17:20.953Z,13.55
2022-12-25T17:19:48.919Z,14.48
2022-12-25T17:22:16.750Z,11.05
2022-12-25T17:24:44.629Z,17.02
2022-12-25T17:27:12.436Z,13.93
2022-12-25T17:29:40.287Z,9.38
2022-12-25T17:32:08.812Z,12.20
2022-12-25T17:34:36.871Z,11.57
2022-12-25T17:37:04.923Z,13.25
2022-12-25T17:39:32.847Z,11.23
2022-12-25T17:42:00.677Z,17.58
2022-12-25T17:44:28.204Z,11.35
2022-12-25T17:46:56.398Z,17.20
2022-12-25T17:49:24.289Z,9.65
2022-12-25T17:51:52.312Z,18.02
2022-12-25T17:54:20.311Z,13.80
2022-12-25T17:56:48.173Z,14.70
2022-12-25T17:59:18.786Z,13.57
2022-12-25T18:01:48.259Z,19.97
2022-12-25T18:04:16.533Z,18.60
2022-12-25T18:06:44.660Z,15.65
2022-12-25T18:09:13.052Z,14.90
2022-12-25T18:11:41.929Z,12.20
2022-12-25T18:14:12.153Z,15.63
2022-12-25T18:16:42.060Z,11.77
2022-12-25T18:19:10.670Z,12.85
2022-12-25T18:21:38.242Z,13.52
2022-12-25T18:24:07.222Z,12.45
2022-12-25T18:26:35.287Z,11.82
2022-12-25T18:29:03.269Z,19.70
2022-12-25T18:31:31.610Z,11.38
2022-12-25T18:34:00.305Z,8.88
2022-12-25T18:36:28.997Z,13.90
2022-12-25T18:38:57.084Z,13.52
2022-12-25T18:41:25.023Z,11.20
2022-12-25T18:43:55.575Z,12.13
2022-12-25T18:46:27.955Z,10.25
2022-12-25T18:48:56.591Z,13.90
2022-12-25T18:51:24.554Z,14.75
2022-12-25T18:53:52.167Z,17.00
2022-12-25T18:56:21.084Z,11.93
2022-12-25T18:58:48.996Z,13.57
2022-12-25T19:01:21.809Z,11.23
2022-12-25T19:03:50.018Z,12.40
2022-12-25T19:06:26.378Z,12.68
2022-12-25T19:08:55.471Z,10.38
2022-12-25T19:11:23.687Z,11.40
2022-12-25T19:13:51.640Z,10.35
2022-12-25T19:16:19.097Z,8.10
2022-12-25T19:18:47.299Z,12.45
2022-12-25T19:21:16.104Z,11.00
2022-12-25T19:23:44.214Z,11.55
2022-12-25T19:26:12.841Z,12.68
2022-12-25T19:28:41.058Z,12.48
2022-12-25T19:31:09.551Z,17.55
2022-12-25T19:33:40.132Z,12.90
2022-12-25T19:36:10.052Z,15.45
2022-12-25T19:38:37.558Z,11.57
2022-12-25T19:41:13.901Z,13.48
2022-12-25T19:43:42.645Z,11.77
2022-12-25T19:46:23.658Z,15.98
2022-12-25T19:48:51.769Z,16.30
2022-12-25T19:51:25.588Z,14.88
2022-12-25T19:53:56.264Z,11.65
2022-12-25T19:56:24.261Z,14.02
2022-12-25T19:58:52.134Z,13.52
2022-12-25T20:01:21.336Z,17.92
2022-12-25T20:03:49.343Z,18.73
2022-12-25T20:06:20.658Z,19.63
2022-12-25T20:08:49.957Z,18.75
2022-12-25T20:11:18.073Z,15.95
2022-12-25T20:13:46.601Z,19.88
2022-12-25T20:16:14.807Z,19.02
2022-12-25T20:18:42.873Z,17.05
2022-12-25T20:21:14.129Z,17.00
2022-12-25T20:23:42.968Z,17.50
2022-12-25T20:26:11.685Z,16.85
2022-12-25T20:28:41.681Z,17.42
2022-12-25T20:31:11.089Z,17.98
2022-12-25T20:33:38.997Z,22.23
2022-12-25T20:36:07.404Z,16.35
2022-12-25T20:38:36.966Z,18.48
2022-12-25T20:41:27.325Z,14.48
2022-12-25T20:43:55.673Z,13.80
2022-12-25T20:46:24.048Z,18.65
2022-12-25T20:48:53.066Z,19.05
2022-12-25T20:51:25.740Z,19.52
2022-12-25T20:53:54.006Z,12.57
2022-12-25T20:56:24.699Z,17.67
2022-12-25T20:58:59.869Z,20.35
2022-12-25T21:01:28.509Z,17.85
2022-12-25T21:03:56.826Z,16.95
2022-12-25T21:06:25.052Z,21.00
2022-12-25T21:08:53.259Z,16.60
2022-12-25T21:11:22.122Z,20.95
2022-12-25T21:13:50.485Z,18.77
2022-12-25T21:16:22.649Z,22.83
2022-12-25T21:18:54.380Z,17.17
2022-12-25T21:23:50.521Z,16.88
2022-12-25T21:26:29.216Z,12.10
2022-12-25T21:29:00.263Z,18.17
2022-12-25T21:31:29.369Z,16.15
2022-12-25T21:33:57.798Z,17.48
2022-12-25T21:36:31.458Z,15.40
2022-12-25T21:39:03.619Z,22.73
2022-12-25T21:41:32.394Z,19.90
2022-12-25T21:44:00.567Z,16.73
2022-12-25T21:46:29.140Z,16.48
2022-12-25T21:48:57.513Z,23.70
2022-12-25T21:51:46.369Z,24.00
2022-12-25T21:54:14.910Z,15.32
2022-12-25T21:56:45.749Z,18.38
2022-12-25T21:59:15.398Z,14.82
2022-12-25T22:01:43.882Z,18.08
2022-12-25T22:04:12.305Z,17.70
2022-12-25T22:06:59.237Z,18.45
2022-12-25T22:09:27.538Z,20.77
2022-12-25T22:12:14.329Z,25.17
2022-12-25T22:14:56.805Z,30.83
2022-12-25T22:17:48.157Z,37.20
2022-12-25T22:20:20.098Z,23.20
2022-12-25T22:22:48.095Z,14.48
2022-12-25T22:25:16.417Z,16.15
2022-12-25T22:27:46.129Z,23.13
2022-12-25T22:30:15.760Z,18.63
2022-12-25T22:32:44.065Z,20.60
2022-12-25T22:35:12.606Z,21.35
2022-12-25T22:37:41.176Z,18.02
2022-12-25T22:40:10.058Z,19.55
2022-12-25T22:42:38.059Z,18.92
2022-12-25T22:45:06.248Z,16.08
2022-12-25T22:47:33.983Z,14.65
2022-12-25T22:50:01.947Z,21.67
2022-12-25T22:52:29.832Z,23.63
2022-12-25T22:54:57.705Z,18.65
2022-12-25T22:57:25.607Z,20.33
2022-12-25T22:59:53.459Z,22.42
2022-12-25T23:02:21.650Z,18.33
2022-12-25T23:04:49.768Z,17.38
2022-12-25T23:07:17.476Z,14.80
2022-12-25T23:09:45.725Z,21.67
2022-12-25T23:12:33.452Z,15.13
2022-12-25T23:15:01.462Z,13.43
2022-12-25T23:17:47.925Z,16.40
2022-12-25T23:20:34.346Z,17.50
2022-12-25T23:23:21.471Z,21.90
2022-12-25T23:26:07.551Z,14.23
2022-12-25T23:28:55.742Z,10.23
2022-12-25T23:31:26.129Z,19.77
2022-12-25T23:33:53.735Z,19.33
2022-12-25T23:36:22.132Z,17.55
2022-12-25T23:38:51.314Z,17.85
2022-12-25T23:41:19.322Z,11.75
2022-12-25T23:43:47.409Z,20.73
2022-12-25T23:46:15.297Z,11.70
2022-12-25T23:48:43.256Z,18.75
2022-12-25T23:51:11.365Z,18.83
2022-12-25T23:53:39.231Z,14.73
2022-12-25T23:56:07.159Z,13.07
2022-12-25T23:58:35.049Z,14.00
